Terminal Aerodrome Forecast
Issued by NWS

Home | Current Version | Previous Version | Text Only | Print | Product List | Glossary On
Versions: 1 2 3 4 5 6 7 8 9 10 11 12 13 14 15 16 17 18 19 20 21 22 23 24 25 26 27 28 29 30 31 32 33 34 35 36 37 38 39 40 41 42 43 44 45 46 47 48 49 50
000
FTUS45 KVEF 041120
TAFLAS
TAF
KLAS 041120Z 0412/0512 20008KT P6SM SCT120
     FM041500 VRB05KT P6SM SCT120
     FM041900 19012G20KT P6SM SCT120 SCT250
     FM050600 20010G18KT P6SM BKN120=

USA.gov is the U.S. government's official web portal to all federal, state and local government web resources and services.